Aérodrome :
LOGIN :

S'inscrire | Disclaimer

   EN    FR    IT 

 










Légende :    VFR   VFR Marginal   IFR   IFR Intensif   IFR Très Intensif
Visi : 
Plafond : 
>= 8 km
>= 3000ft
5 à 8 km
1000 à 3000 ft
1500m à 5 km
500 à 1000 ft
800 à 1500m
200 à 500 ft
< 800m
< 200 ft
Symboles :   Orages  Brouillard  Fortes neiges  Fortes précipitations  Vent > 20 kt
SIGMETs :   Divers  Orages  Givrage  Turbulence  Onde Orograph.  Cendres Volcan.







- Altitude de l'aérodrome : 277 ft
- Code IATA : JER
- Voir les cartes d'approche


EGJJ - Jersey

DERNIER METAR :
  • 131620Z 28021G33KT 9999 -SHRA FEW016 SCT022 10/09 Q0998

METARs EXPIRÉS :
  • 131550Z 28021G32KT 9999 FEW012 SCT016 10/10 Q0998 RESHRA
  • 131520Z 27020KT 9999 VCSH FEW006 BKN012 11/10 Q0998
  • 131450Z 25023KT 9999 -SHRA FEW003 BKN005 10/10 Q0998
  • 131420Z 23021G31KT 6000 SHRA FEW005 BKN007 10/10 Q0998
  • 131350Z 22020KT 9999 -SHRA FEW006 BKN008 10/09 Q0999

TAF TAF EGJJ
Valide du 13 à 15h jusqu'au 14 à 00h UTC


131408Z 1315/1324 25025G35KT 9999 FEW010 SCT015CB
TEMPO 1315/1316 BKN008
TEMPO 1315/1324 3000 +SHRAGS BKN012CB
BECMG 1319/1321 28038G60KT
ATIS : +44 1534 498 073
Pas de NOTAMs connus pour ce terrain.
2 SIGMETs publiés pour la FIR Brest (LFRR) :
 
Turbulence forte
LFRR SIGMET 2 VALID 131500/131900 LFPW
LFRR BREST FIR/UIR SEV TURB FCST WI N4800 W00800 - N4900 W00800 - N4930 W00530 - N4830 W00530 - N4800 W00800 SFC/FL060 MOV E 50KT NC=
Turbulence forte
LFRR SIGMET 1 VALID 131500/131900 LFPW
LFRR BREST FIR/UIR SEV TURB FCST WI N4400 W00400 - N4445 W00700 - N4815 W00430 - N4745 W00015 - N4630 W00015 - N4630 W00130 - N4445 W00145 - N4400 W00400 SFC/FL050 MOV E 40KT NC=



MET'MAP, la Météo Aéronautique d'un coup d'oeil ! - Copyright ORBIFLY Décembre 2007 - Disclaimer

ORBIFLY MET'MAP TEAM :

Programmation & Développement : Alexandra Zaïnal
Conception & Développement : Baudouin d'Aumeries
Co-Programmation & Développement : Marc-Olivier Méhu
Soutien technique & logistique : Manuel Goepfert

Contact : metmap@orbifly.com




SOURCES & CREDITS :

   NOAA